sensor_id;sensor_type;location;lat;lon;timestamp;P1;durP1;ratioP1;P2;durP2;ratioP2
19566;SDS011;9930;49.240;8.548;2022-12-18T00:00:08;32.97;;;17.63;;
19566;SDS011;9930;49.240;8.548;2022-12-18T00:02:38;31.17;;;18.57;;
19566;SDS011;9930;49.240;8.548;2022-12-18T00:05:08;36.20;;;19.07;;
19566;SDS011;9930;49.240;8.548;2022-12-18T00:07:39;37.07;;;18.90;;
19566;SDS011;9930;49.240;8.548;2022-12-18T00:10:05;31.10;;;17.57;;
19566;SDS011;9930;49.240;8.548;2022-12-18T00:12:41;33.43;;;18.07;;
19566;SDS011;9930;49.240;8.548;2022-12-18T00:15:14;29.83;;;17.13;;
19566;SDS011;9930;49.240;8.548;2022-12-18T00:17:40;35.30;;;18.67;;
19566;SDS011;9930;49.240;8.548;2022-12-18T00:20:07;31.07;;;17.40;;
19566;SDS011;9930;49.240;8.548;2022-12-18T00:22:35;29.63;;;16.73;;
19566;SDS011;9930;49.240;8.548;2022-12-18T00:25:04;32.67;;;16.97;;
19566;SDS011;9930;49.240;8.548;2022-12-18T00:27:34;28.63;;;16.13;;
19566;SDS011;9930;49.240;8.548;2022-12-18T00:30:04;29.30;;;15.43;;
19566;SDS011;9930;49.240;8.548;2022-12-18T00:32:42;28.77;;;16.93;;
19566;SDS011;9930;49.240;8.548;2022-12-18T00:35:10;27.67;;;15.63;;
19566;SDS011;9930;49.240;8.548;2022-12-18T00:37:39;28.90;;;17.30;;
19566;SDS011;9930;49.240;8.548;2022-12-18T00:40:15;28.27;;;16.43;;
19566;SDS011;9930;49.240;8.548;2022-12-18T00:42:41;28.67;;;16.40;;
19566;SDS011;9930;49.240;8.548;2022-12-18T00:45:28;27.97;;;16.97;;
19566;SDS011;9930;49.240;8.548;2022-12-18T00:47:56;33.00;;;17.27;;
19566;SDS011;9930;49.240;8.548;2022-12-18T00:50:23;31.33;;;17.20;;
19566;SDS011;9930;49.240;8.548;2022-12-18T00:52:50;30.50;;;17.20;;
19566;SDS011;9930;49.240;8.548;2022-12-18T00:55:17;35.60;;;18.50;;
19566;SDS011;9930;49.240;8.548;2022-12-18T00:57:43;36.17;;;18.50;;
19566;SDS011;9930;49.240;8.548;2022-12-18T01:00:11;32.80;;;17.87;;
19566;SDS011;9930;49.240;8.548;2022-12-18T01:02:39;32.63;;;16.67;;
19566;SDS011;9930;49.240;8.548;2022-12-18T01:05:07;30.93;;;17.20;;
19566;SDS011;9930;49.240;8.548;2022-12-18T01:07:39;33.70;;;17.93;;
19566;SDS011;9930;49.240;8.548;2022-12-18T01:10:11;33.97;;;18.60;;
19566;SDS011;9930;49.240;8.548;2022-12-18T01:12:42;31.60;;;16.87;;
19566;SDS011;9930;49.240;8.548;2022-12-18T01:15:11;32.27;;;17.23;;
19566;SDS011;9930;49.240;8.548;2022-12-18T01:17:39;29.40;;;17.07;;
19566;SDS011;9930;49.240;8.548;2022-12-18T01:20:13;30.83;;;17.43;;
19566;SDS011;9930;49.240;8.548;2022-12-18T01:22:42;33.63;;;17.77;;
19566;SDS011;9930;49.240;8.548;2022-12-18T01:25:12;30.80;;;15.27;;
19566;SDS011;9930;49.240;8.548;2022-12-18T01:27:40;32.30;;;16.90;;
19566;SDS011;9930;49.240;8.548;2022-12-18T01:30:09;28.17;;;15.90;;
19566;SDS011;9930;49.240;8.548;2022-12-18T01:32:39;33.67;;;16.40;;
19566;SDS011;9930;49.240;8.548;2022-12-18T01:35:09;29.33;;;17.13;;
19566;SDS011;9930;49.240;8.548;2022-12-18T01:37:42;27.10;;;15.93;;
19566;SDS011;9930;49.240;8.548;2022-12-18T01:40:10;28.27;;;15.20;;
19566;SDS011;9930;49.240;8.548;2022-12-18T01:42:42;28.07;;;16.30;;
19566;SDS011;9930;49.240;8.548;2022-12-18T01:47:39;32.93;;;18.03;;
19566;SDS011;9930;49.240;8.548;2022-12-18T01:55:57;31.60;;;17.47;;
19566;SDS011;9930;49.240;8.548;2022-12-18T01:58:35;31.57;;;16.80;;
19566;SDS011;9930;49.240;8.548;2022-12-18T02:01:09;31.70;;;17.13;;
19566;SDS011;9930;49.240;8.548;2022-12-18T02:03:40;32.37;;;17.03;;
19566;SDS011;9930;49.240;8.548;2022-12-18T02:06:16;33.73;;;17.77;;
19566;SDS011;9930;49.240;8.548;2022-12-18T02:11:23;26.53;;;14.77;;
19566;SDS011;9930;49.240;8.548;2022-12-18T02:29:03;31.20;;;16.97;;
19566;SDS011;9930;49.240;8.548;2022-12-18T02:31:43;30.80;;;15.87;;
19566;SDS011;9930;49.240;8.548;2022-12-18T02:34:18;27.73;;;15.80;;
19566;SDS011;9930;49.240;8.548;2022-12-18T02:36:53;33.03;;;17.97;;
19566;SDS011;9930;49.240;8.548;2022-12-18T02:39:25;31.07;;;18.07;;
19566;SDS011;9930;49.240;8.548;2022-12-18T02:41:54;32.83;;;17.03;;
19566;SDS011;9930;49.240;8.548;2022-12-18T02:44:20;32.77;;;17.67;;
19566;SDS011;9930;49.240;8.548;2022-12-18T02:46:49;34.63;;;18.47;;
19566;SDS011;9930;49.240;8.548;2022-12-18T02:49:40;33.30;;;18.30;;
19566;SDS011;9930;49.240;8.548;2022-12-18T02:59:01;30.07;;;15.87;;
19566;SDS011;9930;49.240;8.548;2022-12-18T03:04:50;28.90;;;17.00;;
19566;SDS011;9930;49.240;8.548;2022-12-18T03:07:27;26.23;;;15.17;;
19566;SDS011;9930;49.240;8.548;2022-12-18T03:10:13;25.40;;;14.87;;
19566;SDS011;9930;49.240;8.548;2022-12-18T03:12:51;32.73;;;16.03;;
19566;SDS011;9930;49.240;8.548;2022-12-18T03:15:34;30.97;;;15.83;;
19566;SDS011;9930;49.240;8.548;2022-12-18T03:18:12;28.03;;;16.40;;
19566;SDS011;9930;49.240;8.548;2022-12-18T03:20:47;29.37;;;16.93;;
19566;SDS011;9930;49.240;8.548;2022-12-18T03:23:21;31.20;;;15.97;;
19566;SDS011;9930;49.240;8.548;2022-12-18T03:25:53;27.33;;;15.17;;
19566;SDS011;9930;49.240;8.548;2022-12-18T03:28:25;26.00;;;14.90;;
19566;SDS011;9930;49.240;8.548;2022-12-18T03:30:58;31.77;;;16.60;;
19566;SDS011;9930;49.240;8.548;2022-12-18T03:33:29;30.13;;;16.17;;
19566;SDS011;9930;49.240;8.548;2022-12-18T03:36:09;30.13;;;16.63;;
19566;SDS011;9930;49.240;8.548;2022-12-18T03:38:38;30.60;;;15.97;;
19566;SDS011;9930;49.240;8.548;2022-12-18T03:41:15;31.60;;;16.53;;
19566;SDS011;9930;49.240;8.548;2022-12-18T03:46:55;31.20;;;16.43;;
19566;SDS011;9930;49.240;8.548;2022-12-18T03:55:25;28.90;;;15.30;;
19566;SDS011;9930;49.240;8.548;2022-12-18T03:57:59;26.73;;;16.27;;
19566;SDS011;9930;49.240;8.548;2022-12-18T04:00:28;29.93;;;16.53;;
19566;SDS011;9930;49.240;8.548;2022-12-18T04:02:56;31.07;;;16.00;;
19566;SDS011;9930;49.240;8.548;2022-12-18T04:05:25;28.23;;;15.83;;
19566;SDS011;9930;49.240;8.548;2022-12-18T04:07:59;28.83;;;15.10;;
19566;SDS011;9930;49.240;8.548;2022-12-18T04:10:28;26.13;;;14.00;;
19566;SDS011;9930;49.240;8.548;2022-12-18T04:12:55;28.30;;;14.80;;
19566;SDS011;9930;49.240;8.548;2022-12-18T04:15:22;24.97;;;14.40;;
19566;SDS011;9930;49.240;8.548;2022-12-18T04:17:49;32.40;;;16.27;;
19566;SDS011;9930;49.240;8.548;2022-12-18T04:20:15;31.70;;;16.33;;
19566;SDS011;9930;49.240;8.548;2022-12-18T04:22:44;32.67;;;16.83;;
19566;SDS011;9930;49.240;8.548;2022-12-18T04:25:18;31.27;;;15.80;;
19566;SDS011;9930;49.240;8.548;2022-12-18T04:27:44;28.70;;;16.53;;
19566;SDS011;9930;49.240;8.548;2022-12-18T04:30:09;28.83;;;17.00;;
19566;SDS011;9930;49.240;8.548;2022-12-18T04:32:37;29.90;;;15.73;;
19566;SDS011;9930;49.240;8.548;2022-12-18T04:35:09;31.03;;;15.97;;
19566;SDS011;9930;49.240;8.548;2022-12-18T04:37:40;31.13;;;16.00;;
19566;SDS011;9930;49.240;8.548;2022-12-18T04:40:08;27.77;;;15.53;;
19566;SDS011;9930;49.240;8.548;2022-12-18T04:42:39;27.73;;;15.60;;
19566;SDS011;9930;49.240;8.548;2022-12-18T04:45:11;28.97;;;15.63;;
19566;SDS011;9930;49.240;8.548;2022-12-18T04:47:39;28.30;;;16.30;;
19566;SDS011;9930;49.240;8.548;2022-12-18T04:50:09;29.67;;;17.03;;
19566;SDS011;9930;49.240;8.548;2022-12-18T04:52:39;30.30;;;16.90;;
19566;SDS011;9930;49.240;8.548;2022-12-18T04:55:08;29.70;;;15.93;;
19566;SDS011;9930;49.240;8.548;2022-12-18T04:57:43;28.17;;;16.70;;
19566;SDS011;9930;49.240;8.548;2022-12-18T05:00:10;25.73;;;15.43;;
19566;SDS011;9930;49.240;8.548;2022-12-18T05:02:39;26.23;;;16.60;;
19566;SDS011;9930;49.240;8.548;2022-12-18T05:05:07;28.93;;;17.30;;
19566;SDS011;9930;49.240;8.548;2022-12-18T05:07:39;30.40;;;18.07;;
19566;SDS011;9930;49.240;8.548;2022-12-18T05:10:09;31.13;;;18.43;;
19566;SDS011;9930;49.240;8.548;2022-12-18T05:12:38;32.53;;;18.37;;
19566;SDS011;9930;49.240;8.548;2022-12-18T05:15:23;29.07;;;17.13;;
19566;SDS011;9930;49.240;8.548;2022-12-18T05:17:51;30.00;;;18.87;;
19566;SDS011;9930;49.240;8.548;2022-12-18T05:20:20;31.83;;;19.77;;
19566;SDS011;9930;49.240;8.548;2022-12-18T05:22:46;32.83;;;19.70;;
19566;SDS011;9930;49.240;8.548;2022-12-18T05:25:14;30.00;;;19.37;;
19566;SDS011;9930;49.240;8.548;2022-12-18T05:27:43;29.20;;;18.17;;
19566;SDS011;9930;49.240;8.548;2022-12-18T05:30:10;33.67;;;19.03;;
19566;SDS011;9930;49.240;8.548;2022-12-18T05:32:40;32.30;;;19.30;;
19566;SDS011;9930;49.240;8.548;2022-12-18T05:35:11;32.47;;;19.27;;
19566;SDS011;9930;49.240;8.548;2022-12-18T05:37:42;24.50;;;15.23;;
19566;SDS011;9930;49.240;8.548;2022-12-18T05:40:11;32.43;;;19.50;;
19566;SDS011;9930;49.240;8.548;2022-12-18T05:42:39;31.97;;;19.37;;
19566;SDS011;9930;49.240;8.548;2022-12-18T05:45:06;31.97;;;19.50;;
19566;SDS011;9930;49.240;8.548;2022-12-18T05:47:36;33.57;;;20.60;;
19566;SDS011;9930;49.240;8.548;2022-12-18T05:50:09;35.70;;;20.90;;
19566;SDS011;9930;49.240;8.548;2022-12-18T05:52:36;36.60;;;22.07;;
19566;SDS011;9930;49.240;8.548;2022-12-18T05:55:10;32.17;;;19.93;;
19566;SDS011;9930;49.240;8.548;2022-12-18T05:57:38;32.23;;;20.37;;
19566;SDS011;9930;49.240;8.548;2022-12-18T06:00:04;31.03;;;18.60;;
19566;SDS011;9930;49.240;8.548;2022-12-18T06:02:35;34.17;;;20.23;;
19566;SDS011;9930;49.240;8.548;2022-12-18T06:05:06;32.73;;;20.23;;
19566;SDS011;9930;49.240;8.548;2022-12-18T06:07:36;33.20;;;20.10;;
19566;SDS011;9930;49.240;8.548;2022-12-18T06:10:04;31.33;;;19.63;;
19566;SDS011;9930;49.240;8.548;2022-12-18T06:12:40;32.70;;;21.73;;
19566;SDS011;9930;49.240;8.548;2022-12-18T06:15:06;33.20;;;21.20;;
19566;SDS011;9930;49.240;8.548;2022-12-18T06:17:34;32.20;;;20.13;;
19566;SDS011;9930;49.240;8.548;2022-12-18T06:20:02;31.17;;;20.03;;
19566;SDS011;9930;49.240;8.548;2022-12-18T06:22:31;31.33;;;20.33;;
19566;SDS011;9930;49.240;8.548;2022-12-18T06:24:57;28.17;;;18.30;;
19566;SDS011;9930;49.240;8.548;2022-12-18T06:27:27;31.97;;;21.20;;
19566;SDS011;9930;49.240;8.548;2022-12-18T06:29:52;30.00;;;20.53;;
19566;SDS011;9930;49.240;8.548;2022-12-18T06:32:18;34.37;;;20.93;;
19566;SDS011;9930;49.240;8.548;2022-12-18T06:34:44;32.10;;;20.87;;
19566;SDS011;9930;49.240;8.548;2022-12-18T06:37:10;31.03;;;19.40;;
19566;SDS011;9930;49.240;8.548;2022-12-18T06:39:39;31.67;;;20.07;;
19566;SDS011;9930;49.240;8.548;2022-12-18T06:42:09;30.27;;;19.93;;
19566;SDS011;9930;49.240;8.548;2022-12-18T06:44:44;33.33;;;20.47;;
19566;SDS011;9930;49.240;8.548;2022-12-18T06:47:13;28.60;;;17.87;;
19566;SDS011;9930;49.240;8.548;2022-12-18T06:49:41;30.53;;;19.17;;
19566;SDS011;9930;49.240;8.548;2022-12-18T06:52:09;28.13;;;18.97;;
19566;SDS011;9930;49.240;8.548;2022-12-18T06:54:37;32.23;;;19.50;;
19566;SDS011;9930;49.240;8.548;2022-12-18T06:57:08;35.40;;;20.87;;
19566;SDS011;9930;49.240;8.548;2022-12-18T06:59:39;33.23;;;20.03;;
19566;SDS011;9930;49.240;8.548;2022-12-18T07:02:10;33.77;;;21.60;;
19566;SDS011;9930;49.240;8.548;2022-12-18T07:04:38;33.27;;;21.50;;
19566;SDS011;9930;49.240;8.548;2022-12-18T07:07:08;32.70;;;20.60;;
19566;SDS011;9930;49.240;8.548;2022-12-18T07:09:39;33.87;;;20.60;;
19566;SDS011;9930;49.240;8.548;2022-12-18T07:12:06;33.57;;;21.27;;
19566;SDS011;9930;49.240;8.548;2022-12-18T07:14:34;31.23;;;19.87;;
19566;SDS011;9930;49.240;8.548;2022-12-18T07:17:04;30.57;;;19.43;;
19566;SDS011;9930;49.240;8.548;2022-12-18T07:19:32;29.60;;;18.93;;
19566;SDS011;9930;49.240;8.548;2022-12-18T07:21:58;31.20;;;18.80;;
19566;SDS011;9930;49.240;8.548;2022-12-18T07:24:23;30.73;;;18.97;;
19566;SDS011;9930;49.240;8.548;2022-12-18T07:26:52;32.30;;;18.83;;
19566;SDS011;9930;49.240;8.548;2022-12-18T07:29:17;30.03;;;18.57;;
19566;SDS011;9930;49.240;8.548;2022-12-18T07:31:46;30.60;;;18.37;;
19566;SDS011;9930;49.240;8.548;2022-12-18T07:34:12;29.70;;;18.10;;
19566;SDS011;9930;49.240;8.548;2022-12-18T07:36:40;32.40;;;18.43;;
19566;SDS011;9930;49.240;8.548;2022-12-18T07:39:07;30.90;;;19.80;;
19566;SDS011;9930;49.240;8.548;2022-12-18T07:41:41;34.43;;;19.20;;
19566;SDS011;9930;49.240;8.548;2022-12-18T07:44:29;34.83;;;19.90;;
19566;SDS011;9930;49.240;8.548;2022-12-18T07:46:57;42.43;;;22.47;;
19566;SDS011;9930;49.240;8.548;2022-12-18T07:49:23;38.60;;;22.80;;
19566;SDS011;9930;49.240;8.548;2022-12-18T07:51:48;30.23;;;19.40;;
19566;SDS011;9930;49.240;8.548;2022-12-18T07:54:20;34.90;;;21.23;;
19566;SDS011;9930;49.240;8.548;2022-12-18T07:56:49;37.60;;;21.67;;
19566;SDS011;9930;49.240;8.548;2022-12-18T07:59:18;36.47;;;21.30;;
19566;SDS011;9930;49.240;8.548;2022-12-18T08:01:44;36.30;;;22.17;;
19566;SDS011;9930;49.240;8.548;2022-12-18T08:04:10;34.97;;;21.07;;
19566;SDS011;9930;49.240;8.548;2022-12-18T08:06:37;29.73;;;19.73;;
19566;SDS011;9930;49.240;8.548;2022-12-18T08:09:04;33.53;;;21.30;;
19566;SDS011;9930;49.240;8.548;2022-12-18T08:11:34;31.93;;;19.07;;
19566;SDS011;9930;49.240;8.548;2022-12-18T08:14:03;30.37;;;19.90;;
19566;SDS011;9930;49.240;8.548;2022-12-18T08:16:29;31.57;;;19.27;;
19566;SDS011;9930;49.240;8.548;2022-12-18T08:18:57;26.77;;;17.27;;
19566;SDS011;9930;49.240;8.548;2022-12-18T08:21:27;29.93;;;19.37;;
19566;SDS011;9930;49.240;8.548;2022-12-18T08:23:56;30.83;;;19.87;;
19566;SDS011;9930;49.240;8.548;2022-12-18T08:26:25;31.93;;;19.53;;
19566;SDS011;9930;49.240;8.548;2022-12-18T08:28:54;29.27;;;18.77;;
19566;SDS011;9930;49.240;8.548;2022-12-18T08:31:24;28.47;;;18.30;;
19566;SDS011;9930;49.240;8.548;2022-12-18T08:33:54;29.17;;;18.63;;
19566;SDS011;9930;49.240;8.548;2022-12-18T08:36:22;30.10;;;19.53;;
19566;SDS011;9930;49.240;8.548;2022-12-18T08:38:49;32.80;;;20.93;;
19566;SDS011;9930;49.240;8.548;2022-12-18T08:41:16;31.27;;;20.17;;
19566;SDS011;9930;49.240;8.548;2022-12-18T08:43:45;30.37;;;19.47;;
19566;SDS011;9930;49.240;8.548;2022-12-18T08:46:38;30.10;;;19.50;;
19566;SDS011;9930;49.240;8.548;2022-12-18T08:49:07;34.47;;;22.07;;
19566;SDS011;9930;49.240;8.548;2022-12-18T08:51:36;30.33;;;19.60;;
19566;SDS011;9930;49.240;8.548;2022-12-18T08:54:11;31.03;;;18.77;;
19566;SDS011;9930;49.240;8.548;2022-12-18T08:56:38;32.43;;;20.30;;
19566;SDS011;9930;49.240;8.548;2022-12-18T08:59:04;30.20;;;18.37;;
19566;SDS011;9930;49.240;8.548;2022-12-18T09:01:37;26.90;;;18.00;;
19566;SDS011;9930;49.240;8.548;2022-12-18T09:04:04;28.37;;;18.03;;
19566;SDS011;9930;49.240;8.548;2022-12-18T09:06:39;29.53;;;19.33;;
19566;SDS011;9930;49.240;8.548;2022-12-18T09:09:10;26.80;;;19.33;;
19566;SDS011;9930;49.240;8.548;2022-12-18T09:11:41;27.57;;;18.50;;
19566;SDS011;9930;49.240;8.548;2022-12-18T09:14:10;29.73;;;18.40;;
19566;SDS011;9930;49.240;8.548;2022-12-18T09:16:36;27.70;;;17.80;;
19566;SDS011;9930;49.240;8.548;2022-12-18T09:19:04;28.67;;;18.23;;
19566;SDS011;9930;49.240;8.548;2022-12-18T09:21:37;28.07;;;18.23;;
19566;SDS011;9930;49.240;8.548;2022-12-18T09:24:08;30.57;;;17.70;;
19566;SDS011;9930;49.240;8.548;2022-12-18T09:26:39;29.37;;;18.43;;
19566;SDS011;9930;49.240;8.548;2022-12-18T09:29:06;28.10;;;17.97;;
19566;SDS011;9930;49.240;8.548;2022-12-18T09:31:35;26.87;;;18.03;;
19566;SDS011;9930;49.240;8.548;2022-12-18T09:34:04;27.77;;;18.13;;
19566;SDS011;9930;49.240;8.548;2022-12-18T09:36:33;27.53;;;17.37;;
19566;SDS011;9930;49.240;8.548;2022-12-18T09:39:02;26.23;;;17.27;;
19566;SDS011;9930;49.240;8.548;2022-12-18T09:44:20;28.80;;;17.90;;
19566;SDS011;9930;49.240;8.548;2022-12-18T09:47:11;31.37;;;19.40;;
19566;SDS011;9930;49.240;8.548;2022-12-18T09:49:56;31.33;;;19.77;;
19566;SDS011;9930;49.240;8.548;2022-12-18T09:52:37;29.50;;;19.00;;
19566;SDS011;9930;49.240;8.548;2022-12-18T09:57:53;27.33;;;18.10;;
19566;SDS011;9930;49.240;8.548;2022-12-18T10:00:45;26.17;;;16.80;;
19566;SDS011;9930;49.240;8.548;2022-12-18T10:03:12;27.07;;;18.93;;
19566;SDS011;9930;49.240;8.548;2022-12-18T10:14:05;22.90;;;16.10;;
19566;SDS011;9930;49.240;8.548;2022-12-18T10:22:16;23.23;;;16.40;;
19566;SDS011;9930;49.240;8.548;2022-12-18T10:27:48;22.87;;;15.87;;
19566;SDS011;9930;49.240;8.548;2022-12-18T10:30:22;23.03;;;16.20;;
19566;SDS011;9930;49.240;8.548;2022-12-18T10:32:53;22.70;;;16.20;;
19566;SDS011;9930;49.240;8.548;2022-12-18T10:35:22;24.03;;;15.77;;
19566;SDS011;9930;49.240;8.548;2022-12-18T10:38:05;23.70;;;16.13;;
19566;SDS011;9930;49.240;8.548;2022-12-18T10:43:30;23.63;;;16.03;;
19566;SDS011;9930;49.240;8.548;2022-12-18T10:48:50;26.20;;;17.53;;
19566;SDS011;9930;49.240;8.548;2022-12-18T10:51:31;25.37;;;16.83;;
19566;SDS011;9930;49.240;8.548;2022-12-18T10:54:45;23.90;;;16.70;;
19566;SDS011;9930;49.240;8.548;2022-12-18T11:00:21;22.60;;;15.57;;
19566;SDS011;9930;49.240;8.548;2022-12-18T11:02:48;24.10;;;16.07;;
19566;SDS011;9930;49.240;8.548;2022-12-18T11:08:18;23.40;;;16.07;;
19566;SDS011;9930;49.240;8.548;2022-12-18T11:10:49;25.83;;;17.07;;
19566;SDS011;9930;49.240;8.548;2022-12-18T11:13:21;24.37;;;16.37;;
19566;SDS011;9930;49.240;8.548;2022-12-18T11:15:51;24.30;;;16.40;;
19566;SDS011;9930;49.240;8.548;2022-12-18T11:20:50;23.47;;;15.77;;
19566;SDS011;9930;49.240;8.548;2022-12-18T11:23:20;22.40;;;16.03;;
19566;SDS011;9930;49.240;8.548;2022-12-18T11:25:54;25.97;;;17.07;;
19566;SDS011;9930;49.240;8.548;2022-12-18T11:36:29;22.77;;;16.17;;
19566;SDS011;9930;49.240;8.548;2022-12-18T11:45:02;25.03;;;16.07;;
19566;SDS011;9930;49.240;8.548;2022-12-18T11:51:11;26.40;;;16.73;;
19566;SDS011;9930;49.240;8.548;2022-12-18T11:53:53;24.97;;;16.37;;
19566;SDS011;9930;49.240;8.548;2022-12-18T12:19:22;22.23;;;15.37;;
19566;SDS011;9930;49.240;8.548;2022-12-18T12:24:59;22.13;;;15.13;;
19566;SDS011;9930;49.240;8.548;2022-12-18T12:31:05;21.30;;;15.70;;
19566;SDS011;9930;49.240;8.548;2022-12-18T12:34:17;24.13;;;16.20;;
19566;SDS011;9930;49.240;8.548;2022-12-18T12:39:44;24.17;;;16.37;;
19566;SDS011;9930;49.240;8.548;2022-12-18T12:42:20;23.47;;;16.20;;
19566;SDS011;9930;49.240;8.548;2022-12-18T12:45:13;21.57;;;14.90;;
19566;SDS011;9930;49.240;8.548;2022-12-18T12:47:47;20.47;;;15.17;;
19566;SDS011;9930;49.240;8.548;2022-12-18T12:50:17;22.93;;;16.43;;
19566;SDS011;9930;49.240;8.548;2022-12-18T12:52:56;24.93;;;16.77;;
19566;SDS011;9930;49.240;8.548;2022-12-18T12:55:23;22.83;;;16.60;;
19566;SDS011;9930;49.240;8.548;2022-12-18T12:57:55;23.10;;;15.97;;
19566;SDS011;9930;49.240;8.548;2022-12-18T13:09:30;21.23;;;14.80;;
19566;SDS011;9930;49.240;8.548;2022-12-18T13:12:03;22.80;;;16.17;;
19566;SDS011;9930;49.240;8.548;2022-12-18T13:14:55;21.27;;;16.13;;
19566;SDS011;9930;49.240;8.548;2022-12-18T13:17:46;26.33;;;18.00;;
19566;SDS011;9930;49.240;8.548;2022-12-18T13:20:13;22.57;;;15.93;;
19566;SDS011;9930;49.240;8.548;2022-12-18T13:22:44;22.97;;;16.57;;
19566;SDS011;9930;49.240;8.548;2022-12-18T13:25:33;21.83;;;16.00;;
19566;SDS011;9930;49.240;8.548;2022-12-18T13:28:09;22.93;;;17.03;;
19566;SDS011;9930;49.240;8.548;2022-12-18T13:35:51;23.57;;;15.53;;
19566;SDS011;9930;49.240;8.548;2022-12-18T13:38:47;21.47;;;14.87;;
19566;SDS011;9930;49.240;8.548;2022-12-18T13:41:38;21.40;;;15.70;;
19566;SDS011;9930;49.240;8.548;2022-12-18T13:44:12;25.40;;;17.47;;
19566;SDS011;9930;49.240;8.548;2022-12-18T13:46:51;23.70;;;16.80;;
19566;SDS011;9930;49.240;8.548;2022-12-18T13:52:21;20.93;;;15.23;;
19566;SDS011;9930;49.240;8.548;2022-12-18T13:54:58;20.93;;;15.17;;
19566;SDS011;9930;49.240;8.548;2022-12-18T14:02:53;22.83;;;14.87;;
19566;SDS011;9930;49.240;8.548;2022-12-18T14:05:23;24.37;;;16.53;;
19566;SDS011;9930;49.240;8.548;2022-12-18T14:07:54;23.00;;;15.43;;
19566;SDS011;9930;49.240;8.548;2022-12-18T14:10:26;25.13;;;17.20;;
19566;SDS011;9930;49.240;8.548;2022-12-18T14:12:52;27.20;;;17.87;;
19566;SDS011;9930;49.240;8.548;2022-12-18T14:18:01;21.30;;;15.33;;
19566;SDS011;9930;49.240;8.548;2022-12-18T14:20:48;21.03;;;14.07;;
19566;SDS011;9930;49.240;8.548;2022-12-18T14:23:34;21.97;;;14.73;;
19566;SDS011;9930;49.240;8.548;2022-12-18T14:26:24;25.73;;;17.40;;
19566;SDS011;9930;49.240;8.548;2022-12-18T14:28:58;22.73;;;16.10;;
19566;SDS011;9930;49.240;8.548;2022-12-18T14:31:45;24.77;;;15.60;;
19566;SDS011;9930;49.240;8.548;2022-12-18T14:34:16;24.37;;;16.30;;
19566;SDS011;9930;49.240;8.548;2022-12-18T14:36:53;22.20;;;16.60;;
19566;SDS011;9930;49.240;8.548;2022-12-18T14:39:20;24.37;;;16.80;;
19566;SDS011;9930;49.240;8.548;2022-12-18T14:41:48;25.70;;;16.70;;
19566;SDS011;9930;49.240;8.548;2022-12-18T14:44:14;23.37;;;16.67;;
19566;SDS011;9930;49.240;8.548;2022-12-18T14:46:43;23.97;;;16.27;;
19566;SDS011;9930;49.240;8.548;2022-12-18T14:54:28;23.67;;;15.20;;
19566;SDS011;9930;49.240;8.548;2022-12-18T14:57:00;23.10;;;15.17;;
19566;SDS011;9930;49.240;8.548;2022-12-18T14:59:40;23.47;;;15.07;;
19566;SDS011;9930;49.240;8.548;2022-12-18T15:02:22;22.67;;;15.50;;
19566;SDS011;9930;49.240;8.548;2022-12-18T15:05:01;22.03;;;14.43;;
19566;SDS011;9930;49.240;8.548;2022-12-18T15:07:49;22.20;;;15.80;;
19566;SDS011;9930;49.240;8.548;2022-12-18T15:12:48;24.47;;;16.63;;
19566;SDS011;9930;49.240;8.548;2022-12-18T15:26:06;24.70;;;16.93;;
19566;SDS011;9930;49.240;8.548;2022-12-18T15:28:49;25.50;;;16.77;;
19566;SDS011;9930;49.240;8.548;2022-12-18T15:31:24;25.17;;;18.13;;
19566;SDS011;9930;49.240;8.548;2022-12-18T15:36:40;24.87;;;16.37;;
19566;SDS011;9930;49.240;8.548;2022-12-18T15:39:11;26.33;;;16.87;;
19566;SDS011;9930;49.240;8.548;2022-12-18T15:41:40;22.03;;;14.73;;
19566;SDS011;9930;49.240;8.548;2022-12-18T15:44:25;20.87;;;14.43;;
19566;SDS011;9930;49.240;8.548;2022-12-18T15:46:54;24.73;;;16.70;;
19566;SDS011;9930;49.240;8.548;2022-12-18T15:49:20;25.73;;;16.63;;
19566;SDS011;9930;49.240;8.548;2022-12-18T15:51:46;26.53;;;17.93;;
19566;SDS011;9930;49.240;8.548;2022-12-18T15:54:18;26.57;;;18.57;;
19566;SDS011;9930;49.240;8.548;2022-12-18T15:57:14;24.27;;;15.40;;
19566;SDS011;9930;49.240;8.548;2022-12-18T15:59:53;27.70;;;17.93;;
19566;SDS011;9930;49.240;8.548;2022-12-18T16:02:22;25.07;;;17.23;;
19566;SDS011;9930;49.240;8.548;2022-12-18T16:04:52;26.03;;;17.17;;
19566;SDS011;9930;49.240;8.548;2022-12-18T16:07:19;24.33;;;18.17;;
19566;SDS011;9930;49.240;8.548;2022-12-18T16:09:45;30.20;;;18.93;;
19566;SDS011;9930;49.240;8.548;2022-12-18T16:12:17;27.97;;;18.57;;
19566;SDS011;9930;49.240;8.548;2022-12-18T16:14:49;26.17;;;18.13;;
19566;SDS011;9930;49.240;8.548;2022-12-18T16:17:15;26.50;;;17.00;;
19566;SDS011;9930;49.240;8.548;2022-12-18T16:19:44;25.87;;;16.83;;
19566;SDS011;9930;49.240;8.548;2022-12-18T16:22:21;25.40;;;16.20;;
19566;SDS011;9930;49.240;8.548;2022-12-18T16:24:52;23.10;;;16.10;;
19566;SDS011;9930;49.240;8.548;2022-12-18T16:27:20;23.03;;;15.70;;
19566;SDS011;9930;49.240;8.548;2022-12-18T16:29:48;25.03;;;15.53;;
19566;SDS011;9930;49.240;8.548;2022-12-18T16:32:18;25.90;;;16.83;;
19566;SDS011;9930;49.240;8.548;2022-12-18T16:34:46;26.83;;;17.60;;
19566;SDS011;9930;49.240;8.548;2022-12-18T16:37:13;24.47;;;16.60;;
19566;SDS011;9930;49.240;8.548;2022-12-18T16:39:43;24.83;;;17.17;;
19566;SDS011;9930;49.240;8.548;2022-12-18T16:42:16;24.03;;;16.50;;
19566;SDS011;9930;49.240;8.548;2022-12-18T16:44:45;24.80;;;15.83;;
19566;SDS011;9930;49.240;8.548;2022-12-18T16:47:15;28.23;;;17.43;;
19566;SDS011;9930;49.240;8.548;2022-12-18T16:49:42;27.97;;;18.80;;
19566;SDS011;9930;49.240;8.548;2022-12-18T16:52:13;28.30;;;18.73;;
19566;SDS011;9930;49.240;8.548;2022-12-18T16:54:39;24.97;;;17.97;;
19566;SDS011;9930;49.240;8.548;2022-12-18T16:57:13;24.70;;;16.77;;
19566;SDS011;9930;49.240;8.548;2022-12-18T16:59:41;23.13;;;15.83;;
19566;SDS011;9930;49.240;8.548;2022-12-18T17:02:12;23.37;;;15.83;;
19566;SDS011;9930;49.240;8.548;2022-12-18T17:04:51;24.53;;;16.87;;
19566;SDS011;9930;49.240;8.548;2022-12-18T17:07:19;25.43;;;16.50;;
19566;SDS011;9930;49.240;8.548;2022-12-18T17:09:51;23.03;;;15.90;;
19566;SDS011;9930;49.240;8.548;2022-12-18T17:12:20;22.67;;;15.67;;
19566;SDS011;9930;49.240;8.548;2022-12-18T17:14:50;24.20;;;15.97;;
19566;SDS011;9930;49.240;8.548;2022-12-18T17:17:16;23.47;;;16.10;;
19566;SDS011;9930;49.240;8.548;2022-12-18T17:19:42;22.53;;;16.30;;
19566;SDS011;9930;49.240;8.548;2022-12-18T17:22:08;25.60;;;16.10;;
19566;SDS011;9930;49.240;8.548;2022-12-18T17:24:35;23.13;;;15.70;;
19566;SDS011;9930;49.240;8.548;2022-12-18T17:27:03;25.33;;;15.90;;
19566;SDS011;9930;49.240;8.548;2022-12-18T17:29:42;24.23;;;15.87;;
19566;SDS011;9930;49.240;8.548;2022-12-18T17:32:08;21.93;;;15.63;;
19566;SDS011;9930;49.240;8.548;2022-12-18T17:34:34;21.87;;;15.07;;
19566;SDS011;9930;49.240;8.548;2022-12-18T17:37:11;20.67;;;14.13;;
19566;SDS011;9930;49.240;8.548;2022-12-18T17:39:42;19.77;;;14.10;;
19566;SDS011;9930;49.240;8.548;2022-12-18T17:42:10;20.77;;;13.53;;
19566;SDS011;9930;49.240;8.548;2022-12-18T17:44:36;21.57;;;14.40;;
19566;SDS011;9930;49.240;8.548;2022-12-18T17:47:02;22.63;;;14.83;;
19566;SDS011;9930;49.240;8.548;2022-12-18T17:49:29;24.47;;;15.47;;
19566;SDS011;9930;49.240;8.548;2022-12-18T17:51:55;20.87;;;13.97;;
19566;SDS011;9930;49.240;8.548;2022-12-18T17:54:26;23.10;;;14.07;;
19566;SDS011;9930;49.240;8.548;2022-12-18T17:56:55;21.97;;;14.53;;